Time;durP1;ratioP1;P1;durP2;ratioP2;P2;SDS_P1;SDS_P2;PMS_P1;PMS_P2;Temp;Humidity;BMP_temperature;BMP_pressure;BME280_temperature;BME280_humidity;BME280_pressure;Samples;Min_cycle;Max_cycle;Signal;HPM_P1;HPM_P2
2023/10/29 00:02:08;;;;;;;8.20;7.13;;;8.40;99.90;;;;;;5040825;28;20482;-57
2023/10/29 00:04:36;;;;;;;8.83;6.60;;;8.40;99.90;;;;;;5034922;28;21014;-59
2023/10/29 00:07:03;;;;;;;13.37;7.00;;;8.50;99.90;;;;;;5017945;28;20463;-57
2023/10/29 00:09:29;;;;;;;21.07;6.83;;;8.50;99.90;;;;;;5015072;28;20440;-56
2023/10/29 00:11:58;;;;;;;6.77;6.03;;;8.50;99.90;;;;;;5014998;28;20475;-57
2023/10/29 00:14:25;;;;;;;8.23;6.47;;;8.50;99.90;;;;;;5015099;28;20903;-57
2023/10/29 00:16:52;;;;;;;22.37;7.43;;;8.50;99.90;;;;;;5021712;28;20524;-58
2023/10/29 00:19:18;;;;;;;12.07;7.23;;;8.60;99.90;;;;;;5023241;28;20538;-57
2023/10/29 00:21:45;;;;;;;18.13;6.20;;;8.60;99.90;;;;;;5014910;28;20866;-57
2023/10/29 00:24:12;;;;;;;7.93;6.40;;;8.70;99.90;;;;;;5013579;28;20483;-58
2023/10/29 00:26:38;;;;;;;13.57;6.77;;;8.60;99.90;;;;;;5014828;28;20443;-57
2023/10/29 00:29:07;;;;;;;9.07;6.50;;;8.60;99.90;;;;;;5014763;28;20961;-57
2023/10/29 00:31:34;;;;;;;8.70;6.20;;;8.60;99.90;;;;;;5013494;28;20471;-58
2023/10/29 00:34:02;;;;;;;7.37;5.93;;;8.50;99.90;;;;;;5030547;28;20462;-57
2023/10/29 00:36:29;;;;;;;7.27;6.00;;;8.60;99.90;;;;;;5014538;28;20456;-58
2023/10/29 00:38:56;;;;;;;10.10;6.27;;;8.50;99.90;;;;;;5014412;28;20487;-58
2023/10/29 00:41:22;;;;;;;15.60;6.80;;;8.50;99.90;;;;;;5013258;28;20499;-58
2023/10/29 00:43:49;;;;;;;8.27;6.50;;;8.60;99.90;;;;;;5014714;28;20585;-57
2023/10/29 00:46:17;;;;;;;11.30;5.90;;;8.60;99.90;;;;;;5014352;28;20475;-58
2023/10/29 00:48:45;;;;;;;7.33;5.83;;;8.60;99.90;;;;;;5013012;28;20819;-56
2023/10/29 00:51:12;;;;;;;15.47;6.57;;;8.60;99.90;;;;;;5022449;28;20456;-57
2023/10/29 00:53:40;;;;;;;5.93;5.20;;;8.60;99.90;;;;;;5014538;28;20547;-57
2023/10/29 00:56:08;;;;;;;10.03;6.30;;;8.50;99.90;;;;;;5014312;28;20482;-57
2023/10/29 00:58:35;;;;;;;6.57;5.87;;;8.50;99.90;;;;;;5012971;28;20479;-58
2023/10/29 01:01:02;;;;;;;6.53;5.37;;;8.50;99.90;;;;;;5013131;28;20957;-57
2023/10/29 01:03:30;;;;;;;10.53;6.30;;;8.50;99.90;;;;;;5012730;28;20515;-58
2023/10/29 01:05:57;;;;;;;7.00;5.80;;;8.50;99.90;;;;;;5021581;28;20440;-56
2023/10/29 01:08:25;;;;;;;11.80;6.30;;;8.50;99.90;;;;;;5034032;28;20466;-58
2023/10/29 01:10:52;;;;;;;7.70;5.83;;;8.50;99.90;;;;;;5033873;28;20532;-57
2023/10/29 01:13:19;;;;;;;11.00;6.93;;;8.50;99.90;;;;;;5033850;28;20999;-57
2023/10/29 01:15:46;;;;;;;9.07;5.40;;;8.50;99.90;;;;;;5027039;28;20456;-58
2023/10/29 01:18:12;;;;;;;14.27;5.40;;;8.50;99.90;;;;;;5013791;28;20833;-57
2023/10/29 01:20:40;;;;;;;9.40;5.17;;;8.50;99.90;;;;;;5013846;28;20474;-58
2023/10/29 01:23:07;;;;;;;8.50;5.10;;;8.60;99.90;;;;;;5014048;28;20523;-57
2023/10/29 01:25:33;;;;;;;10.20;5.23;;;8.50;99.90;;;;;;5020146;28;20467;-57
2023/10/29 01:28:00;;;;;;;5.93;4.37;;;8.50;99.90;;;;;;5013737;28;20451;-57
2023/10/29 01:30:27;;;;;;;8.70;5.30;;;8.60;99.90;;;;;;5013603;28;20959;-57
2023/10/29 01:32:53;;;;;;;9.07;5.60;;;8.50;99.90;;;;;;5011729;28;20515;-58
2023/10/29 01:35:20;;;;;;;6.97;5.13;;;8.60;99.90;;;;;;5013504;28;20444;-56
2023/10/29 01:37:48;;;;;;;10.40;5.77;;;8.60;99.90;;;;;;5012531;28;20499;-58
2023/10/29 01:40:15;;;;;;;7.20;4.80;;;8.60;99.90;;;;;;5015843;28;20980;-58
2023/10/29 01:42:41;;;;;;;11.80;4.93;;;8.60;99.90;;;;;;5033184;28;20494;-56
2023/10/29 01:45:08;;;;;;;8.80;5.03;;;8.60;99.90;;;;;;5033023;28;20505;-57
2023/10/29 01:47:35;;;;;;;10.13;4.93;;;8.70;99.90;;;;;;5020773;28;20463;-56
2023/10/29 01:50:02;;;;;;;6.20;4.47;;;8.70;99.90;;;;;;5013444;28;20440;-56
2023/10/29 01:52:28;;;;;;;7.00;5.23;;;8.70;99.90;;;;;;5013146;28;20472;-57
2023/10/29 01:54:58;;;;;;;13.03;5.00;;;8.70;99.90;;;;;;5012091;28;20575;-57
2023/10/29 01:57:24;;;;;;;10.90;4.47;;;8.70;99.90;;;;;;5017038;28;20458;-57
2023/10/29 01:59:51;;;;;;;8.67;4.80;;;8.70;99.90;;;;;;5032766;28;20514;-57
2023/10/29 02:02:17;;;;;;;10.10;3.80;;;8.70;99.90;;;;;;5032373;28;20450;-58
2023/10/29 02:04:44;;;;;;;6.83;4.77;;;8.70;99.90;;;;;;5017084;28;20464;-58
2023/10/29 02:07:11;;;;;;;7.53;3.77;;;8.70;99.90;;;;;;5012758;28;20840;-58
2023/10/29 02:09:38;;;;;;;7.87;3.57;;;8.70;99.90;;;;;;5012995;28;20444;-58
2023/10/29 02:12:06;;;;;;;6.10;3.80;;;8.70;99.90;;;;;;5011510;28;20817;-57
2023/10/29 02:14:36;;;;;;;6.33;3.63;;;8.80;99.90;;;;;;5020836;28;20899;-58
2023/10/29 02:17:03;;;;;;;4.50;3.67;;;8.80;99.90;;;;;;5012595;28;20952;-57
2023/10/29 02:19:29;;;;;;;5.03;3.33;;;8.80;99.90;;;;;;5011721;28;20487;-57
2023/10/29 02:21:57;;;;;;;7.83;3.77;;;8.80;99.90;;;;;;5012649;28;20468;-57
2023/10/29 02:24:24;;;;;;;6.03;3.30;;;8.90;99.90;;;;;;5012724;28;20467;-57
2023/10/29 02:26:50;;;;;;;6.43;3.17;;;8.80;99.90;;;;;;5012795;28;20448;-57
2023/10/29 02:29:17;;;;;;;4.30;3.57;;;8.90;99.90;;;;;;5013625;28;20546;-57
2023/10/29 02:31:44;;;;;;;6.80;3.27;;;8.90;99.90;;;;;;5015923;28;20491;-58
2023/10/29 02:34:11;;;;;;;4.70;3.67;;;8.90;99.90;;;;;;5027801;28;20463;-57
2023/10/29 02:36:38;;;;;;;4.63;3.17;;;8.90;99.90;;;;;;5012397;28;20518;-57
2023/10/29 02:39:06;;;;;;;5.00;3.33;;;8.90;99.90;;;;;;5012320;28;20514;-57
2023/10/29 02:41:33;;;;;;;5.37;2.97;;;8.90;99.90;;;;;;5011990;28;20454;-58
2023/10/29 02:43:59;;;;;;;6.83;3.37;;;8.90;99.90;;;;;;5012156;28;20510;-57
2023/10/29 02:46:26;;;;;;;7.50;3.27;;;8.90;99.90;;;;;;5012167;28;20439;-58
2023/10/29 02:48:52;;;;;;;4.83;3.23;;;8.90;99.90;;;;;;5010983;28;20814;-57
2023/10/29 02:51:19;;;;;;;10.50;5.13;;;9.00;99.90;;;;;;5011941;28;20506;-57
2023/10/29 02:53:46;;;;;;;9.27;4.20;;;9.00;99.90;;;;;;5010686;28;20563;-57
2023/10/29 02:56:14;;;;;;;8.73;2.73;;;9.00;99.90;;;;;;5011819;28;21009;-57
2023/10/29 02:58:40;;;;;;;5.97;3.10;;;9.00;99.90;;;;;;5011111;28;20511;-57
2023/10/29 03:01:08;;;;;;;9.70;2.80;;;9.00;99.90;;;;;;5012179;28;20547;-57
2023/10/29 03:03:35;;;;;;;6.57;2.77;;;9.00;99.90;;;;;;5011901;28;20476;-58
2023/10/29 03:06:04;;;;;;;6.77;3.77;;;9.00;99.90;;;;;;5010520;28;20851;-57
2023/10/29 03:08:31;;;;;;;5.63;3.30;;;9.10;99.90;;;;;;5021668;28;20989;-58
2023/10/29 03:10:57;;;;;;;8.43;3.53;;;9.10;99.90;;;;;;5012138;28;20479;-57
2023/10/29 03:13:25;;;;;;;7.03;2.73;;;9.00;99.90;;;;;;5012194;28;20491;-57
2023/10/29 03:15:52;;;;;;;3.70;2.50;;;9.10;99.90;;;;;;5011808;28;20872;-57
2023/10/29 03:18:19;;;;;;;7.17;3.30;;;9.10;99.90;;;;;;5011838;28;20845;-57
2023/10/29 03:20:45;;;;;;;4.37;2.37;;;9.10;99.90;;;;;;5011665;28;20487;-57
2023/10/29 03:23:12;;;;;;;7.23;2.70;;;9.10;99.90;;;;;;5007991;28;20519;-56
2023/10/29 03:25:38;;;;;;;5.20;2.50;;;9.10;99.90;;;;;;5018077;28;20455;-57
2023/10/29 03:28:05;;;;;;;4.37;2.70;;;9.10;99.90;;;;;;5031357;28;20474;-57
2023/10/29 03:30:33;;;;;;;6.57;2.80;;;9.10;99.90;;;;;;5031495;28;20442;-58
2023/10/29 03:33:00;;;;;;;4.60;2.83;;;9.20;99.90;;;;;;5024610;28;20546;-57
2023/10/29 03:35:27;;;;;;;10.70;2.40;;;9.20;99.90;;;;;;5011853;28;20447;-58
2023/10/29 03:37:54;;;;;;;5.67;2.23;;;9.20;99.90;;;;;;5011911;28;20463;-58
2023/10/29 03:40:20;;;;;;;5.00;2.90;;;9.20;99.90;;;;;;5018331;28;20532;-58
2023/10/29 03:42:47;;;;;;;8.43;2.47;;;9.20;99.90;;;;;;5009973;28;20582;-57
2023/10/29 03:45:14;;;;;;;4.10;2.70;;;9.20;99.90;;;;;;5011440;28;20471;-57
2023/10/29 03:47:43;;;;;;;3.30;2.43;;;9.30;99.90;;;;;;5010002;28;20517;-57
2023/10/29 03:50:10;;;;;;;3.37;2.60;;;9.30;99.90;;;;;;5011656;28;20444;-57
2023/10/29 03:52:36;;;;;;;6.83;3.10;;;9.30;99.90;;;;;;5011563;28;20464;-57
2023/10/29 03:55:03;;;;;;;5.30;2.63;;;9.30;99.90;;;;;;5011758;28;20914;-57
2023/10/29 03:57:29;;;;;;;5.70;2.23;;;9.30;99.90;;;;;;5018442;28;20786;-57
2023/10/29 03:59:56;;;;;;;4.70;2.60;;;9.40;99.90;;;;;;5026807;28;20510;-56
2023/10/29 04:02:23;;;;;;;9.13;2.70;;;9.30;99.90;;;;;;5031461;28;20500;-57
2023/10/29 04:04:50;;;;;;;6.47;2.70;;;9.40;99.90;;;;;;5012122;28;20463;-58
2023/10/29 04:07:17;;;;;;;5.50;2.87;;;9.40;99.90;;;;;;5011463;28;20447;-57
2023/10/29 04:09:44;;;;;;;3.30;2.73;;;9.40;99.90;;;;;;5011618;28;20506;-58
2023/10/29 04:12:11;;;;;;;8.83;2.80;;;9.40;99.90;;;;;;5010454;28;20451;-56
2023/10/29 04:14:39;;;;;;;2.93;2.50;;;9.40;99.90;;;;;;5019065;28;20444;-57
2023/10/29 04:17:06;;;;;;;7.60;2.97;;;9.40;99.90;;;;;;5028118;28;20537;-57
2023/10/29 04:19:33;;;;;;;5.23;2.80;;;9.40;99.90;;;;;;5031118;28;20489;-58
2023/10/29 04:22:02;;;;;;;3.87;2.47;;;9.40;99.90;;;;;;5018315;28;20464;-57
2023/10/29 04:24:29;;;;;;;6.10;3.20;;;9.40;99.90;;;;;;5011411;28;20435;-58
2023/10/29 04:26:55;;;;;;;3.60;2.83;;;9.40;99.90;;;;;;5011175;28;20447;-57
2023/10/29 04:29:22;;;;;;;6.17;2.80;;;9.50;99.90;;;;;;5020242;28;20471;-56
2023/10/29 04:31:49;;;;;;;7.77;3.10;;;9.50;99.90;;;;;;5016234;28;20444;-57
2023/10/29 04:34:15;;;;;;;7.63;2.93;;;9.50;99.90;;;;;;5010813;28;20470;-58
2023/10/29 04:36:42;;;;;;;4.90;3.20;;;9.50;99.90;;;;;;5012292;28;20530;-57
2023/10/29 04:39:10;;;;;;;3.43;2.90;;;9.50;99.90;;;;;;5013148;28;20494;-58
2023/10/29 04:41:37;;;;;;;13.27;3.60;;;9.50;99.90;;;;;;5014615;28;20451;-58
2023/10/29 04:44:05;;;;;;;5.93;3.60;;;9.50;99.90;;;;;;5014656;28;20561;-58
2023/10/29 04:46:31;;;;;;;6.23;3.30;;;9.50;99.90;;;;;;5013199;28;20473;-57
2023/10/29 04:48:58;;;;;;;4.13;3.10;;;9.50;99.90;;;;;;5022027;28;21002;-57
2023/10/29 04:51:24;;;;;;;7.90;3.13;;;9.50;99.90;;;;;;5034308;28;20960;-57
2023/10/29 04:53:51;;;;;;;7.10;3.10;;;9.50;99.90;;;;;;5021237;28;20932;-57
2023/10/29 04:56:19;;;;;;;10.13;3.33;;;9.60;99.90;;;;;;5014014;28;20950;-57
2023/10/29 04:58:45;;;;;;;4.00;3.30;;;9.60;99.90;;;;;;5014262;28;20531;-56
2023/10/29 05:01:13;;;;;;;6.73;2.87;;;9.60;99.90;;;;;;5014238;28;20484;-57
2023/10/29 05:03:40;;;;;;;5.63;2.77;;;9.60;99.90;;;;;;5013122;28;20491;-57
2023/10/29 05:06:06;;;;;;;3.60;2.63;;;9.70;99.90;;;;;;5030723;28;20960;-57
2023/10/29 05:08:33;;;;;;;5.43;2.63;;;9.70;99.90;;;;;;5034095;28;20454;-57
2023/10/29 05:10:59;;;;;;;4.07;2.60;;;9.70;99.90;;;;;;5013040;28;20499;-56
2023/10/29 05:13:28;;;;;;;5.60;3.00;;;9.70;99.90;;;;;;5014124;28;20491;-57
2023/10/29 05:15:54;;;;;;;3.83;2.50;;;9.70;99.90;;;;;;5014386;28;20444;-57
2023/10/29 05:18:21;;;;;;;11.83;3.00;;;9.70;99.90;;;;;;5013120;28;20969;-56
2023/10/29 05:20:48;;;;;;;6.10;3.00;;;9.70;99.90;;;;;;5028289;28;20983;-58
2023/10/29 05:23:15;;;;;;;6.07;2.70;;;9.70;99.90;;;;;;5034006;28;20836;-58
2023/10/29 05:25:41;;;;;;;8.87;2.90;;;9.80;99.90;;;;;;5027828;28;20464;-59
2023/10/29 05:28:08;;;;;;;4.10;2.57;;;9.80;99.90;;;;;;5013918;28;20476;-59
2023/10/29 05:30:36;;;;;;;7.90;2.57;;;9.80;99.90;;;;;;5013811;28;20444;-58
2023/10/29 05:33:02;;;;;;;10.07;2.80;;;9.80;99.90;;;;;;5013506;28;20833;-58
2023/10/29 05:35:29;;;;;;;3.73;2.40;;;9.80;99.90;;;;;;5015551;28;20850;-58
2023/10/29 05:37:55;;;;;;;8.10;2.23;;;9.80;99.90;;;;;;5024986;28;20458;-58
2023/10/29 05:40:21;;;;;;;5.57;2.60;;;9.80;99.90;;;;;;5033076;28;20957;-58
2023/10/29 05:42:47;;;;;;;11.17;2.50;;;9.80;99.90;;;;;;5020692;28;20519;-58
2023/10/29 05:45:14;;;;;;;13.20;3.53;;;9.90;99.90;;;;;;5013409;28;20208;-58
2023/10/29 05:47:42;;;;;;;11.37;2.23;;;9.90;99.90;;;;;;5011941;28;20740;-58
2023/10/29 05:50:09;;;;;;;3.80;2.40;;;9.90;99.90;;;;;;5013518;28;20443;-60
2023/10/29 05:52:36;;;;;;;7.67;2.53;;;9.90;99.90;;;;;;5012082;28;20510;-60
2023/10/29 05:55:03;;;;;;;6.53;2.67;;;9.90;99.90;;;;;;5013324;28;20440;-59
2023/10/29 05:57:31;;;;;;;5.20;2.47;;;9.90;99.90;;;;;;5013305;28;20448;-59
2023/10/29 05:59:57;;;;;;;10.10;2.80;;;9.90;99.90;;;;;;5013148;28;20487;-59
2023/10/29 06:02:24;;;;;;;7.67;2.77;;;10.00;99.90;;;;;;5013558;28;20501;-59
2023/10/29 06:04:52;;;;;;;13.40;2.60;;;10.00;99.90;;;;;;5013192;28;20456;-60
2023/10/29 06:07:18;;;;;;;4.30;2.33;;;10.00;99.90;;;;;;4993377;28;20469;-59
2023/10/29 06:09:46;;;;;;;10.43;3.53;;;10.10;99.90;;;;;;5014746;28;20456;-59
2023/10/29 06:12:12;;;;;;;5.83;2.40;;;10.10;99.90;;;;;;5030317;28;20451;-60
2023/10/29 06:14:39;;;;;;;8.50;2.53;;;10.10;99.90;;;;;;5032962;28;20447;-60
2023/10/29 06:17:05;;;;;;;9.40;2.57;;;10.10;99.90;;;;;;5032485;28;20449;-60
2023/10/29 06:19:33;;;;;;;4.80;1.93;;;10.10;99.90;;;;;;5032774;28;20455;-59
2023/10/29 06:22:00;;;;;;;4.70;2.40;;;10.20;99.90;;;;;;5032666;28;20474;-59
2023/10/29 06:24:27;;;;;;;6.27;2.53;;;10.10;99.90;;;;;;5019635;28;20495;-59
2023/10/29 06:26:54;;;;;;;4.97;2.30;;;10.20;99.90;;;;;;5018146;28;20558;-57
2023/10/29 06:29:21;;;;;;;7.60;2.47;;;10.20;99.90;;;;;;5013785;28;20623;-57
2023/10/29 06:31:47;;;;;;;3.83;2.17;;;10.20;99.90;;;;;;5012564;28;20494;-58
2023/10/29 06:34:14;;;;;;;4.90;2.50;;;10.20;99.90;;;;;;5012590;28;20522;-57
2023/10/29 06:36:41;;;;;;;5.20;2.10;;;10.30;99.90;;;;;;5012430;28;20452;-56
2023/10/29 06:39:08;;;;;;;4.30;2.47;;;10.30;99.90;;;;;;5011618;28;20495;-57
2023/10/29 06:41:35;;;;;;;7.20;2.37;;;10.30;99.90;;;;;;5011518;28;20569;-57
2023/10/29 06:44:02;;;;;;;7.90;2.40;;;10.30;99.90;;;;;;5020715;28;20506;-56
2023/10/29 06:46:29;;;;;;;5.40;2.10;;;10.30;99.90;;;;;;5012718;28;20458;-58
2023/10/29 06:48:55;;;;;;;7.10;2.80;;;10.30;99.90;;;;;;5012126;28;20906;-57
2023/10/29 06:51:22;;;;;;;6.10;2.33;;;10.30;99.90;;;;;;5012601;28;20870;-57
2023/10/29 06:53:48;;;;;;;4.93;3.10;;;10.30;99.90;;;;;;5012284;28;21051;-58
2023/10/29 06:56:16;;;;;;;5.97;1.90;;;10.40;99.90;;;;;;5010871;28;20467;-57
2023/10/29 06:58:43;;;;;;;5.50;2.80;;;10.40;99.90;;;;;;5010715;28;20499;-58
2023/10/29 07:01:10;;;;;;;3.93;2.20;;;10.40;99.90;;;;;;5019841;28;21058;-58
2023/10/29 07:03:37;;;;;;;5.80;2.73;;;10.40;99.90;;;;;;5012230;28;20471;-57
2023/10/29 07:06:06;;;;;;;11.97;3.20;;;10.40;99.90;;;;;;5012323;28;20443;-56
2023/10/29 07:08:33;;;;;;;6.03;2.90;;;10.40;99.90;;;;;;5012021;28;20459;-58
2023/10/29 07:11:00;;;;;;;5.00;4.27;;;10.40;99.90;;;;;;5012654;28;20466;-56
2023/10/29 07:13:28;;;;;;;5.33;3.63;;;10.40;99.90;;;;;;5010699;28;20967;-58
2023/10/29 07:15:55;;;;;;;7.83;3.53;;;10.40;99.90;;;;;;5019157;28;20460;-57
2023/10/29 07:18:23;;;;;;;6.50;2.50;;;10.40;99.90;;;;;;5030649;28;20933;-57
2023/10/29 07:20:51;;;;;;;4.67;1.97;;;10.40;99.90;;;;;;5032151;28;20481;-57
2023/10/29 07:23:18;;;;;;;9.67;2.67;;;10.40;99.90;;;;;;5031885;28;20516;-57
2023/10/29 07:25:45;;;;;;;11.03;4.83;;;10.50;99.90;;;;;;5031809;28;20482;-56
2023/10/29 07:28:12;;;;;;;2.13;1.90;;;10.50;99.90;;;;;;5023089;28;20491;-58
2023/10/29 07:30:39;;;;;;;2.83;2.10;;;10.50;99.90;;;;;;5010596;28;20927;-57
2023/10/29 07:33:06;;;;;;;4.93;2.23;;;10.50;99.90;;;;;;5019794;28;20863;-57
2023/10/29 07:35:33;;;;;;;7.27;2.43;;;10.50;99.90;;;;;;5012031;28;20448;-57
2023/10/29 07:37:59;;;;;;;10.70;2.13;;;10.50;99.90;;;;;;5012258;28;20937;-57
2023/10/29 07:40:26;;;;;;;5.97;1.70;;;10.50;99.90;;;;;;5011725;28;20906;-57
2023/10/29 07:42:52;;;;;;;4.10;1.80;;;10.50;99.90;;;;;;5011651;28;20890;-57
2023/10/29 07:45:19;;;;;;;4.50;2.00;;;10.50;99.90;;;;;;5010094;28;20534;-58
2023/10/29 07:47:47;;;;;;;14.40;2.50;;;10.50;99.90;;;;;;5018790;28;20463;-57
2023/10/29 07:50:15;;;;;;;16.83;2.20;;;10.50;99.90;;;;;;5028888;28;20435;-58
2023/10/29 07:52:41;;;;;;;11.63;2.80;;;10.50;99.90;;;;;;5031278;28;20513;-57
2023/10/29 07:55:09;;;;;;;8.90;2.07;;;10.50;99.90;;;;;;5031624;28;20447;-57
2023/10/29 07:57:38;;;;;;;4.50;1.80;;;10.50;99.90;;;;;;5032356;28;20446;-57
2023/10/29 08:00:05;;;;;;;5.37;2.23;;;10.50;99.90;;;;;;5033416;28;20559;-57
2023/10/29 08:02:32;;;;;;;6.17;2.30;;;10.50;99.90;;;;;;5019169;28;20540;-58
2023/10/29 08:05:00;;;;;;;4.73;2.00;;;10.50;99.90;;;;;;5026365;28;20463;-58
2023/10/29 08:07:28;;;;;;;4.23;1.73;;;10.50;99.90;;;;;;5031019;28;20820;-57
2023/10/29 08:09:56;;;;;;;7.90;2.30;;;10.50;99.90;;;;;;5031059;28;20470;-65
2023/10/29 08:12:23;;;;;;;4.40;2.40;;;10.50;99.90;;;;;;5034973;28;20498;-63
2023/10/29 08:14:49;;;;;;;6.10;2.50;;;10.50;99.90;;;;;;5035281;28;20470;-65
2023/10/29 08:17:17;;;;;;;7.23;2.73;;;10.50;99.90;;;;;;5016734;28;20503;-65
2023/10/29 08:19:43;;;;;;;12.07;2.67;;;10.50;99.90;;;;;;5013908;28;20447;-65
2023/10/29 08:22:11;;;;;;;4.77;2.70;;;10.50;99.90;;;;;;5023399;28;21022;-65
2023/10/29 08:24:39;;;;;;;3.37;2.00;;;10.50;99.90;;;;;;5034638;28;20513;-63
2023/10/29 08:27:06;;;;;;;4.93;2.53;;;10.50;99.90;;;;;;5034660;28;20453;-64
2023/10/29 08:29:34;;;;;;;5.50;2.73;;;10.60;99.90;;;;;;5034883;28;20466;-63
2023/10/29 08:32:01;;;;;;;4.07;2.30;;;10.50;99.90;;;;;;5025498;28;20670;-64
2023/10/29 08:34:27;;;;;;;9.10;3.03;;;10.50;99.90;;;;;;5014667;28;20929;-64
2023/10/29 08:36:55;;;;;;;8.40;2.33;;;10.50;99.90;;;;;;5013092;28;21039;-66
2023/10/29 08:39:22;;;;;;;3.40;2.47;;;10.60;99.90;;;;;;5030589;28;20443;-64
2023/10/29 08:41:49;;;;;;;3.67;2.47;;;10.60;99.90;;;;;;5014489;28;20961;-65
2023/10/29 08:44:18;;;;;;;6.00;2.23;;;10.60;99.90;;;;;;5014674;28;20950;-64
2023/10/29 08:46:45;;;;;;;7.43;2.60;;;10.60;99.90;;;;;;5013376;28;20952;-64
2023/10/29 08:49:12;;;;;;;6.47;2.40;;;10.60;99.90;;;;;;5014516;28;20788;-64
2023/10/29 08:51:37;;;;;;;7.87;2.77;;;10.60;99.90;;;;;;5014528;28;20443;-64
2023/10/29 08:54:04;;;;;;;8.83;2.60;;;10.60;99.90;;;;;;5011923;28;20554;-65
2023/10/29 08:56:35;;;;;;;12.70;9.40;;;10.60;99.90;;;;;;5021886;28;20201;-65
2023/10/29 08:59:04;;;;;;;4.93;2.90;;;10.70;99.90;;;;;;5014600;28;20535;-64
2023/10/29 09:01:30;;;;;;;5.30;2.70;;;10.70;99.90;;;;;;5015247;28;20487;-65
2023/10/29 09:03:57;;;;;;;4.27;2.90;;;10.70;99.90;;;;;;5013125;28;20522;-64
2023/10/29 09:06:24;;;;;;;3.43;2.53;;;10.70;99.90;;;;;;5013719;28;20537;-64
2023/10/29 09:08:50;;;;;;;4.83;2.10;;;10.80;99.90;;;;;;5015919;28;20444;-65
2023/10/29 09:11:17;;;;;;;12.63;6.67;;;10.80;99.90;;;;;;5019105;28;21235;-65
2023/10/29 09:13:45;;;;;;;9.73;5.13;;;10.80;99.90;;;;;;5029080;28;21001;-64
2023/10/29 09:16:12;;;;;;;7.13;2.20;;;10.80;99.90;;;;;;5013775;28;20475;-64
2023/10/29 09:18:39;;;;;;;8.83;2.13;;;10.90;99.90;;;;;;5014110;28;20440;-65
2023/10/29 09:21:06;;;;;;;6.47;2.40;;;10.90;99.90;;;;;;5012457;28;20574;-64
2023/10/29 09:23:32;;;;;;;2.63;1.87;;;10.90;99.90;;;;;;5013397;28;20467;-65
2023/10/29 09:25:59;;;;;;;2.60;1.70;;;10.90;99.90;;;;;;5013765;28;20521;-65
2023/10/29 09:28:26;;;;;;;4.00;2.13;;;11.00;99.90;;;;;;5012398;28;20468;-64
2023/10/29 09:30:54;;;;;;;5.57;2.00;;;10.90;99.90;;;;;;5021493;28;20531;-64
2023/10/29 09:33:20;;;;;;;4.87;1.80;;;11.00;99.90;;;;;;5013330;28;20977;-64
2023/10/29 09:35:47;;;;;;;4.83;2.00;;;11.10;99.90;;;;;;5012134;28;20468;-64
2023/10/29 09:38:15;;;;;;;7.80;1.63;;;11.10;99.90;;;;;;5013602;28;20494;-65
2023/10/29 09:40:42;;;;;;;8.00;2.07;;;11.20;99.90;;;;;;5015672;28;20562;-64
2023/10/29 09:43:12;;;;;;;2.13;1.70;;;11.20;99.90;;;;;;5014768;28;20916;-65
2023/10/29 09:45:45;;;;;;;3.00;1.60;;;11.20;99.90;;;;;;5018126;28;20474;-64
2023/10/29 09:48:13;;;;;;;10.67;2.10;;;11.30;99.90;;;;;;5039094;28;20459;-58
2023/10/29 09:50:41;;;;;;;5.07;1.77;;;11.30;99.90;;;;;;5043383;28;20460;-56
2023/10/29 09:53:11;;;;;;;4.33;2.00;;;11.30;99.90;;;;;;5027830;28;20845;-58
2023/10/29 09:55:39;;;;;;;7.27;1.70;;;11.40;99.90;;;;;;5021814;28;20821;-57
2023/10/29 09:58:06;;;;;;;5.70;1.60;;;11.40;99.90;;;;;;5013923;28;20443;-58
2023/10/29 10:00:34;;;;;;;5.60;1.90;;;11.50;99.90;;;;;;5014278;28;20937;-57
2023/10/29 10:03:00;;;;;;;2.90;2.20;;;11.50;99.90;;;;;;5014135;28;20491;-58
2023/10/29 10:05:29;;;;;;;6.97;2.13;;;11.60;25.70;;;;;;5029201;28;20510;-57
2023/10/29 10:07:56;;;;;;;3.23;1.67;;;11.60;27.10;;;;;;5012227;28;20464;-57
2023/10/29 10:10:37;;;;;;;4.97;2.17;;;11.70;39.20;;;;;;5012977;28;20857;-57
2023/10/29 10:13:04;;;;;;;4.07;1.80;;;11.70;44.40;;;;;;5012775;28;20463;-58
2023/10/29 10:15:31;;;;;;;3.20;1.70;;;11.80;48.30;;;;;;5012936;28;20444;-59
2023/10/29 10:18:00;;;;;;;5.57;1.73;;;11.80;50.20;;;;;;5013002;28;20486;-57
2023/10/29 10:20:27;;;;;;;5.03;1.70;;;11.80;44.50;;;;;;5013981;28;20518;-57
2023/10/29 10:22:58;;;;;;;2.57;1.70;;;11.90;49.80;;;;;;5022795;28;20538;-57
2023/10/29 10:25:26;;;;;;;3.60;1.50;;;11.90;52.70;;;;;;5032404;28;20446;-57
2023/10/29 10:27:53;;;;;;;2.53;1.67;;;11.90;59.10;;;;;;5033018;28;20482;-57
2023/10/29 10:30:29;;;;;;;3.87;1.87;;;12.00;53.70;;;;;;5032874;28;20438;-57
2023/10/29 10:33:08;;;;;;;6.90;1.60;;;12.00;57.90;;;;;;5032561;28;20884;-57
2023/10/29 10:35:39;;;;;;;2.40;1.30;;;12.10;59.70;;;;;;5033193;28;20462;-58
2023/10/29 10:38:07;;;;;;;4.70;2.07;;;12.10;55.40;;;;;;5022570;28;20790;-57
2023/10/29 10:40:34;;;;;;;2.33;1.60;;;12.10;62.50;;;;;;5029328;28;21159;-57
2023/10/29 10:43:01;;;;;;;9.43;2.03;;;12.10;59.50;;;;;;5033971;28;20495;-58
2023/10/29 10:45:29;;;;;;;4.10;1.40;;;12.20;61.40;;;;;;5012058;28;20555;-57
2023/10/29 10:47:57;;;;;;;2.50;1.57;;;12.10;59.40;;;;;;5031967;28;20944;-57
2023/10/29 10:50:25;;;;;;;2.33;1.87;;;12.10;56.80;;;;;;5031977;28;20446;-57
2023/10/29 10:52:52;;;;;;;2.40;1.50;;;12.10;56.70;;;;;;5032195;28;20905;-58
2023/10/29 10:55:22;;;;;;;2.37;1.60;;;12.10;55.90;;;;;;5022498;28;20514;-58
2023/10/29 10:57:49;;;;;;;7.13;1.80;;;12.10;57.20;;;;;;5012519;28;20546;-57
2023/10/29 11:00:17;;;;;;;7.43;1.73;;;12.10;51.50;;;;;;5019569;28;20468;-58
2023/10/29 11:02:44;;;;;;;2.43;1.43;;;12.10;48.10;;;;;;5031615;28;20490;-58
2023/10/29 11:05:13;;;;;;;4.43;1.80;;;12.20;47.60;;;;;;5031676;28;20447;-57
2023/10/29 11:07:41;;;;;;;1.60;1.27;;;12.20;45.70;;;;;;5032091;28;20813;-57
2023/10/29 11:10:12;;;;;;;8.23;1.83;;;12.20;46.40;;;;;;5025043;28;20487;-57
2023/10/29 11:12:40;;;;;;;3.00;1.47;;;12.30;53.50;;;;;;5012052;28;20471;-57
2023/10/29 11:15:15;;;;;;;2.50;1.57;;;12.30;64.80;;;;;;5012112;28;21233;-58
2023/10/29 11:17:52;;;;;;;5.90;1.70;;;12.40;66.20;;;;;;5015013;28;20456;-58
2023/10/29 11:20:54;;;;;;;1.67;1.50;;;12.40;61.00;;;;;;5031493;28;20474;-59
2023/10/29 11:23:25;;;;;;;4.77;1.63;;;12.40;58.80;;;;;;5031782;28;20466;-57
2023/10/29 11:26:20;;;;;;;6.47;1.50;;;12.40;65.00;;;;;;5019511;28;20459;-57
2023/10/29 11:28:48;;;;;;;7.47;2.20;;;12.50;66.60;;;;;;5012214;28;20522;-56
2023/10/29 11:31:16;;;;;;;3.47;1.80;;;12.50;65.90;;;;;;5010917;28;20950;-57
2023/10/29 11:33:44;;;;;;;7.60;1.93;;;12.60;75.00;;;;;;5023329;28;20463;-57
2023/10/29 11:36:34;;;;;;;3.90;1.33;;;12.50;74.50;;;;;;5031034;28;20469;-57
2023/10/29 11:39:22;;;;;;;2.33;1.43;;;12.60;72.90;;;;;;5031668;28;20443;-58
2023/10/29 11:41:51;;;;;;;3.90;1.63;;;12.70;79.30;;;;;;5031486;28;21035;-57
2023/10/29 11:44:27;;;;;;;3.30;1.53;;;12.70;77.90;;;;;;5014872;28;20521;-61
2023/10/29 11:47:04;;;;;;;3.23;1.10;;;12.70;83.00;;;;;;5014689;28;20449;-62
2023/10/29 11:49:51;;;;;;;2.70;1.37;;;12.90;95.80;;;;;;5023814;28;20470;-62
2023/10/29 11:52:18;;;;;;;3.13;1.20;;;13.00;97.20;;;;;;5016841;28;20447;-62
2023/10/29 11:54:45;;;;;;;3.90;1.83;;;13.00;98.80;;;;;;5017451;28;20804;-61
2023/10/29 11:57:14;;;;;;;3.57;1.60;;;13.10;99.90;;;;;;5016339;28;20448;-61
2023/10/29 11:59:54;;;;;;;1.57;1.47;;;13.20;95.10;;;;;;4999859;28;20812;-62
2023/10/29 12:02:22;;;;;;;7.20;1.57;;;13.20;93.30;;;;;;5005627;28;20515;-62
2023/10/29 12:04:49;;;;;;;4.57;1.83;;;13.20;96.70;;;;;;5019013;28;20458;-62
2023/10/29 12:07:24;;;;;;;2.40;1.63;;;13.20;99.70;;;;;;5026823;28;20489;-62
2023/10/29 12:10:00;;;;;;;1.40;1.30;;;13.20;99.90;;;;;;5034978;28;20447;-62
2023/10/29 12:12:27;;;;;;;2.03;1.70;;;13.30;99.90;;;;;;5035259;28;20817;-62
2023/10/29 12:14:55;;;;;;;2.73;1.90;;;13.30;99.00;;;;;;5035060;28;20443;-61
2023/10/29 12:17:21;;;;;;;3.20;2.00;;;13.30;99.90;;;;;;5034878;28;20528;-62
2023/10/29 12:19:48;;;;;;;1.80;1.70;;;13.30;97.60;;;;;;5024161;28;20472;-62
2023/10/29 12:22:16;;;;;;;3.60;1.40;;;13.30;99.90;;;;;;5013687;28;20563;-61
2023/10/29 12:24:44;;;;;;;2.20;1.80;;;13.40;99.90;;;;;;5019136;28;20778;-61
2023/10/29 12:27:10;;;;;;;5.17;2.30;;;13.40;99.30;;;;;;5034975;28;20482;-61
2023/10/29 12:29:37;;;;;;;3.30;2.30;;;13.40;99.90;;;;;;5035256;28;20497;-63
2023/10/29 12:32:14;;;;;;;4.67;2.13;;;13.50;97.90;;;;;;5034871;28;20439;-62
2023/10/29 12:34:51;;;;;;;4.10;2.70;;;13.50;99.90;;;;;;5030882;28;20512;-62
2023/10/29 12:37:22;;;;;;;3.43;2.40;;;13.50;99.90;;;;;;5014998;28;20471;-63
2023/10/29 12:39:51;;;;;;;2.70;2.50;;;13.50;99.90;;;;;;5013881;28;20471;-62
2023/10/29 12:42:18;;;;;;;3.23;1.83;;;13.60;99.90;;;;;;5022971;28;20582;-62
2023/10/29 12:44:54;;;;;;;6.10;1.57;;;13.70;99.90;;;;;;5034445;28;20497;-62
2023/10/29 12:47:23;;;;;;;2.37;1.30;;;13.70;99.90;;;;;;5034201;28;20439;-61
2023/10/29 12:50:01;;;;;;;3.57;1.73;;;13.80;99.90;;;;;;5034494;28;20443;-63
2023/10/29 12:52:27;;;;;;;2.10;1.60;;;13.90;99.90;;;;;;5019613;28;20479;-61
2023/10/29 12:54:54;;;;;;;3.90;1.50;;;13.90;99.90;;;;;;5014694;28;20452;-63